sensor_id;sensor_type;location;lat;lon;timestamp;P1;durP1;ratioP1;P2;durP2;ratioP2
22030;SDS011;11179;52.106;21.024;2023-02-28T00:00:23;26.77;;;16.10;;
22030;SDS011;11179;52.106;21.024;2023-02-28T00:02:49;25.63;;;15.70;;
22030;SDS011;11179;52.106;21.024;2023-02-28T00:05:15;26.67;;;14.30;;
22030;SDS011;11179;52.106;21.024;2023-02-28T00:07:42;23.80;;;14.40;;
22030;SDS011;11179;52.106;21.024;2023-02-28T00:10:09;27.20;;;14.13;;
22030;SDS011;11179;52.106;21.024;2023-02-28T00:12:37;25.27;;;13.02;;
22030;SDS011;11179;52.106;21.024;2023-02-28T00:15:04;24.17;;;12.85;;
22030;SDS011;11179;52.106;21.024;2023-02-28T00:17:31;28.10;;;12.68;;
22030;SDS011;11179;52.106;21.024;2023-02-28T00:19:56;26.37;;;11.97;;
22030;SDS011;11179;52.106;21.024;2023-02-28T00:22:22;19.10;;;11.17;;
22030;SDS011;11179;52.106;21.024;2023-02-28T00:24:47;22.40;;;11.60;;
22030;SDS011;11179;52.106;21.024;2023-02-28T00:27:12;23.50;;;11.67;;
22030;SDS011;11179;52.106;21.024;2023-02-28T00:29:39;21.10;;;12.18;;
22030;SDS011;11179;52.106;21.024;2023-02-28T00:32:05;25.50;;;12.07;;
22030;SDS011;11179;52.106;21.024;2023-02-28T00:34:31;30.35;;;14.65;;
22030;SDS011;11179;52.106;21.024;2023-02-28T00:36:57;36.15;;;17.10;;
22030;SDS011;11179;52.106;21.024;2023-02-28T00:39:22;31.73;;;13.53;;
22030;SDS011;11179;52.106;21.024;2023-02-28T00:41:48;34.57;;;14.20;;
22030;SDS011;11179;52.106;21.024;2023-02-28T00:44:13;29.13;;;12.73;;
22030;SDS011;11179;52.106;21.024;2023-02-28T00:46:38;23.40;;;11.43;;
22030;SDS011;11179;52.106;21.024;2023-02-28T00:49:04;22.20;;;10.87;;
22030;SDS011;11179;52.106;21.024;2023-02-28T00:51:29;28.37;;;12.57;;
22030;SDS011;11179;52.106;21.024;2023-02-28T00:53:54;22.07;;;11.03;;
22030;SDS011;11179;52.106;21.024;2023-02-28T00:56:20;26.67;;;12.60;;
22030;SDS011;11179;52.106;21.024;2023-02-28T00:58:45;33.37;;;13.40;;
22030;SDS011;11179;52.106;21.024;2023-02-28T01:01:10;31.83;;;14.33;;
22030;SDS011;11179;52.106;21.024;2023-02-28T01:03:36;37.37;;;15.10;;
22030;SDS011;11179;52.106;21.024;2023-02-28T01:06:01;37.73;;;17.53;;
22030;SDS011;11179;52.106;21.024;2023-02-28T01:08:26;34.57;;;15.50;;
22030;SDS011;11179;52.106;21.024;2023-02-28T01:10:52;36.57;;;15.67;;
22030;SDS011;11179;52.106;21.024;2023-02-28T01:13:18;37.80;;;16.33;;
22030;SDS011;11179;52.106;21.024;2023-02-28T01:15:54;39.10;;;17.45;;
22030;SDS011;11179;52.106;21.024;2023-02-28T01:18:20;49.55;;;17.55;;
22030;SDS011;11179;52.106;21.024;2023-02-28T01:20:47;46.63;;;17.35;;
22030;SDS011;11179;52.106;21.024;2023-02-28T01:23:12;55.40;;;19.73;;
22030;SDS011;11179;52.106;21.024;2023-02-28T01:25:38;51.33;;;19.40;;
22030;SDS011;11179;52.106;21.024;2023-02-28T01:28:03;47.13;;;19.53;;
22030;SDS011;11179;52.106;21.024;2023-02-28T01:30:29;46.87;;;17.57;;
22030;SDS011;11179;52.106;21.024;2023-02-28T01:32:55;44.08;;;18.75;;
22030;SDS011;11179;52.106;21.024;2023-02-28T01:35:20;46.70;;;21.10;;
22030;SDS011;11179;52.106;21.024;2023-02-28T01:37:45;50.90;;;20.27;;
22030;SDS011;11179;52.106;21.024;2023-02-28T01:40:11;48.40;;;19.87;;
22030;SDS011;11179;52.106;21.024;2023-02-28T01:42:37;48.13;;;18.88;;
22030;SDS011;11179;52.106;21.024;2023-02-28T01:47:29;36.33;;;17.30;;
22030;SDS011;11179;52.106;21.024;2023-02-28T01:49:58;44.97;;;18.98;;
22030;SDS011;11179;52.106;21.024;2023-02-28T01:52:25;41.08;;;17.88;;
22030;SDS011;11179;52.106;21.024;2023-02-28T01:54:52;36.17;;;16.67;;
22030;SDS011;11179;52.106;21.024;2023-02-28T01:57:25;44.15;;;15.82;;
22030;SDS011;11179;52.106;21.024;2023-02-28T02:00:05;35.65;;;15.82;;
22030;SDS011;11179;52.106;21.024;2023-02-28T02:02:33;29.38;;;15.48;;
22030;SDS011;11179;52.106;21.024;2023-02-28T02:05:09;39.03;;;16.30;;
22030;SDS011;11179;52.106;21.024;2023-02-28T02:07:42;37.83;;;16.15;;
22030;SDS011;11179;52.106;21.024;2023-02-28T02:15:21;31.75;;;14.52;;
22030;SDS011;11179;52.106;21.024;2023-02-28T02:17:56;34.95;;;14.57;;
22030;SDS011;11179;52.106;21.024;2023-02-28T02:37:04;34.00;;;13.63;;
22030;SDS011;11179;52.106;21.024;2023-02-28T02:39:47;30.20;;;13.30;;
22030;SDS011;11179;52.106;21.024;2023-02-28T02:42:22;24.70;;;12.27;;
22030;SDS011;11179;52.106;21.024;2023-02-28T02:44:58;24.67;;;12.30;;
22030;SDS011;11179;52.106;21.024;2023-02-28T02:47:29;23.65;;;12.05;;
22030;SDS011;11179;52.106;21.024;2023-02-28T02:49:56;23.83;;;13.10;;
22030;SDS011;11179;52.106;21.024;2023-02-28T02:52:29;22.60;;;11.75;;
22030;SDS011;11179;52.106;21.024;2023-02-28T02:54:59;22.63;;;12.13;;
22030;SDS011;11179;52.106;21.024;2023-02-28T02:57:30;25.50;;;12.20;;
22030;SDS011;11179;52.106;21.024;2023-02-28T03:00:05;19.73;;;10.95;;
22030;SDS011;11179;52.106;21.024;2023-02-28T03:02:34;23.42;;;11.07;;
22030;SDS011;11179;52.106;21.024;2023-02-28T03:05:06;23.60;;;12.25;;
22030;SDS011;11179;52.106;21.024;2023-02-28T03:08:04;24.42;;;11.63;;
22030;SDS011;11179;52.106;21.024;2023-02-28T03:10:44;23.58;;;12.77;;
22030;SDS011;11179;52.106;21.024;2023-02-28T03:30:33;30.67;;;14.07;;
22030;SDS011;11179;52.106;21.024;2023-02-28T03:33:08;29.48;;;15.10;;
22030;SDS011;11179;52.106;21.024;2023-02-28T03:35:39;27.23;;;13.23;;
22030;SDS011;11179;52.106;21.024;2023-02-28T03:41:36;27.10;;;13.32;;
22030;SDS011;11179;52.106;21.024;2023-02-28T03:43:53;27.33;;;13.25;;
22030;SDS011;11179;52.106;21.024;2023-02-28T03:46:22;32.42;;;13.95;;
22030;SDS011;11179;52.106;21.024;2023-02-28T03:48:58;28.85;;;14.43;;
22030;SDS011;11179;52.106;21.024;2023-02-28T03:51:25;26.98;;;14.32;;
22030;SDS011;11179;52.106;21.024;2023-02-28T03:53:54;27.15;;;13.70;;
22030;SDS011;11179;52.106;21.024;2023-02-28T03:56:27;32.40;;;14.43;;
22030;SDS011;11179;52.106;21.024;2023-02-28T04:02:19;26.80;;;14.00;;
22030;SDS011;11179;52.106;21.024;2023-02-28T04:04:45;30.33;;;15.20;;
22030;SDS011;11179;52.106;21.024;2023-02-28T04:07:13;29.77;;;14.50;;
22030;SDS011;11179;52.106;21.024;2023-02-28T04:09:39;30.53;;;15.00;;
22030;SDS011;11179;52.106;21.024;2023-02-28T04:12:04;30.50;;;15.20;;
22030;SDS011;11179;52.106;21.024;2023-02-28T04:14:29;29.67;;;15.40;;
22030;SDS011;11179;52.106;21.024;2023-02-28T04:16:55;31.13;;;16.60;;
22030;SDS011;11179;52.106;21.024;2023-02-28T04:19:20;38.97;;;18.90;;
22030;SDS011;11179;52.106;21.024;2023-02-28T04:21:46;37.93;;;18.83;;
22030;SDS011;11179;52.106;21.024;2023-02-28T04:24:15;43.28;;;18.35;;
22030;SDS011;11179;52.106;21.024;2023-02-28T04:26:43;35.35;;;17.00;;
22030;SDS011;11179;52.106;21.024;2023-02-28T04:29:11;32.28;;;16.30;;
22030;SDS011;11179;52.106;21.024;2023-02-28T04:31:38;32.17;;;16.42;;
22030;SDS011;11179;52.106;21.024;2023-02-28T04:34:03;27.27;;;15.27;;
22030;SDS011;11179;52.106;21.024;2023-02-28T04:36:29;32.13;;;17.43;;
22030;SDS011;11179;52.106;21.024;2023-02-28T04:38:55;30.50;;;14.53;;
22030;SDS011;11179;52.106;21.024;2023-02-28T04:41:20;37.93;;;17.03;;
22030;SDS011;11179;52.106;21.024;2023-02-28T04:43:46;33.00;;;16.87;;
22030;SDS011;11179;52.106;21.024;2023-02-28T04:46:11;33.10;;;16.73;;
22030;SDS011;11179;52.106;21.024;2023-02-28T04:48:38;33.67;;;15.87;;
22030;SDS011;11179;52.106;21.024;2023-02-28T04:51:05;32.03;;;16.52;;
22030;SDS011;11179;52.106;21.024;2023-02-28T04:53:33;29.90;;;15.90;;
22030;SDS011;11179;52.106;21.024;2023-02-28T04:55:59;30.77;;;15.48;;
22030;SDS011;11179;52.106;21.024;2023-02-28T04:58:25;29.55;;;14.93;;
22030;SDS011;11179;52.106;21.024;2023-02-28T05:00:51;29.63;;;15.57;;
22030;SDS011;11179;52.106;21.024;2023-02-28T05:03:17;29.88;;;15.10;;
22030;SDS011;11179;52.106;21.024;2023-02-28T05:05:42;27.90;;;15.30;;
22030;SDS011;11179;52.106;21.024;2023-02-28T05:08:08;32.90;;;16.20;;
22030;SDS011;11179;52.106;21.024;2023-02-28T05:10:34;29.67;;;15.50;;
22030;SDS011;11179;52.106;21.024;2023-02-28T05:13:00;33.00;;;17.10;;
22030;SDS011;11179;52.106;21.024;2023-02-28T05:15:25;36.60;;;16.90;;
22030;SDS011;11179;52.106;21.024;2023-02-28T05:17:50;39.40;;;18.33;;
22030;SDS011;11179;52.106;21.024;2023-02-28T05:20:16;39.33;;;17.80;;
22030;SDS011;11179;52.106;21.024;2023-02-28T05:22:42;44.83;;;19.58;;
22030;SDS011;11179;52.106;21.024;2023-02-28T05:25:11;38.53;;;18.80;;
22030;SDS011;11179;52.106;21.024;2023-02-28T05:27:38;42.55;;;19.40;;
22030;SDS011;11179;52.106;21.024;2023-02-28T05:30:04;35.30;;;16.43;;
22030;SDS011;11179;52.106;21.024;2023-02-28T05:32:31;37.22;;;18.50;;
22030;SDS011;11179;52.106;21.024;2023-02-28T05:34:56;44.73;;;18.97;;
22030;SDS011;11179;52.106;21.024;2023-02-28T05:37:21;30.23;;;15.77;;
22030;SDS011;11179;52.106;21.024;2023-02-28T05:39:47;31.20;;;15.73;;
22030;SDS011;11179;52.106;21.024;2023-02-28T05:42:12;39.73;;;18.43;;
22030;SDS011;11179;52.106;21.024;2023-02-28T05:44:38;32.07;;;16.47;;
22030;SDS011;11179;52.106;21.024;2023-02-28T05:47:03;33.17;;;16.47;;
22030;SDS011;11179;52.106;21.024;2023-02-28T05:49:29;34.20;;;16.67;;
22030;SDS011;11179;52.106;21.024;2023-02-28T05:51:54;36.83;;;17.40;;
22030;SDS011;11179;52.106;21.024;2023-02-28T05:54:19;36.93;;;16.83;;
22030;SDS011;11179;52.106;21.024;2023-02-28T05:56:45;34.80;;;15.23;;
22030;SDS011;11179;52.106;21.024;2023-02-28T05:59:11;39.90;;;17.17;;
22030;SDS011;11179;52.106;21.024;2023-02-28T06:01:41;41.47;;;17.38;;
22030;SDS011;11179;52.106;21.024;2023-02-28T06:04:15;35.20;;;18.70;;
22030;SDS011;11179;52.106;21.024;2023-02-28T06:06:44;45.53;;;18.52;;
22030;SDS011;11179;52.106;21.024;2023-02-28T06:09:15;36.10;;;18.80;;
22030;SDS011;11179;52.106;21.024;2023-02-28T06:11:41;33.90;;;17.47;;
22030;SDS011;11179;52.106;21.024;2023-02-28T06:14:06;37.70;;;17.07;;
22030;SDS011;11179;52.106;21.024;2023-02-28T06:16:32;34.77;;;16.27;;
22030;SDS011;11179;52.106;21.024;2023-02-28T06:19:00;28.98;;;15.85;;
22030;SDS011;11179;52.106;21.024;2023-02-28T06:21:27;28.27;;;13.55;;
22030;SDS011;11179;52.106;21.024;2023-02-28T06:23:54;26.55;;;14.15;;
22030;SDS011;11179;52.106;21.024;2023-02-28T06:26:20;32.15;;;13.95;;
22030;SDS011;11179;52.106;21.024;2023-02-28T06:28:46;29.43;;;14.47;;
22030;SDS011;11179;52.106;21.024;2023-02-28T06:31:13;25.93;;;13.83;;
22030;SDS011;11179;52.106;21.024;2023-02-28T06:33:40;27.25;;;14.48;;
22030;SDS011;11179;52.106;21.024;2023-02-28T06:36:07;33.45;;;15.02;;
22030;SDS011;11179;52.106;21.024;2023-02-28T06:38:33;30.73;;;13.32;;
22030;SDS011;11179;52.106;21.024;2023-02-28T06:40:59;31.73;;;13.97;;
22030;SDS011;11179;52.106;21.024;2023-02-28T06:43:28;21.85;;;10.13;;
22030;SDS011;11179;52.106;21.024;2023-02-28T06:45:56;20.27;;;10.77;;
22030;SDS011;11179;52.106;21.024;2023-02-28T06:48:23;21.58;;;10.35;;
22030;SDS011;11179;52.106;21.024;2023-02-28T06:50:49;21.85;;;10.07;;
22030;SDS011;11179;52.106;21.024;2023-02-28T06:53:15;20.13;;;9.37;;
22030;SDS011;11179;52.106;21.024;2023-02-28T06:55:40;19.97;;;9.63;;
22030;SDS011;11179;52.106;21.024;2023-02-28T06:58:06;21.73;;;10.20;;
22030;SDS011;11179;52.106;21.024;2023-02-28T07:00:44;23.73;;;11.20;;
22030;SDS011;11179;52.106;21.024;2023-02-28T07:03:10;26.05;;;11.50;;
22030;SDS011;11179;52.106;21.024;2023-02-28T07:05:37;19.43;;;10.23;;
22030;SDS011;11179;52.106;21.024;2023-02-28T07:08:03;22.07;;;11.33;;
22030;SDS011;11179;52.106;21.024;2023-02-28T07:10:29;30.73;;;12.38;;
22030;SDS011;11179;52.106;21.024;2023-02-28T07:12:55;30.30;;;13.53;;
22030;SDS011;11179;52.106;21.024;2023-02-28T07:15:20;27.13;;;12.17;;
22030;SDS011;11179;52.106;21.024;2023-02-28T07:17:45;26.77;;;12.10;;
22030;SDS011;11179;52.106;21.024;2023-02-28T07:20:11;26.50;;;11.57;;
22030;SDS011;11179;52.106;21.024;2023-02-28T07:22:36;21.80;;;9.37;;
22030;SDS011;11179;52.106;21.024;2023-02-28T07:25:03;23.23;;;9.60;;
22030;SDS011;11179;52.106;21.024;2023-02-28T07:27:30;17.20;;;8.80;;
22030;SDS011;11179;52.106;21.024;2023-02-28T07:29:55;17.77;;;7.97;;
22030;SDS011;11179;52.106;21.024;2023-02-28T07:32:20;20.40;;;10.00;;
22030;SDS011;11179;52.106;21.024;2023-02-28T07:34:46;17.20;;;9.17;;
22030;SDS011;11179;52.106;21.024;2023-02-28T07:37:11;27.90;;;11.33;;
22030;SDS011;11179;52.106;21.024;2023-02-28T07:39:36;15.40;;;8.03;;
22030;SDS011;11179;52.106;21.024;2023-02-28T07:42:05;25.90;;;9.20;;
22030;SDS011;11179;52.106;21.024;2023-02-28T07:44:31;17.73;;;9.00;;
22030;SDS011;11179;52.106;21.024;2023-02-28T07:46:57;18.70;;;8.90;;
22030;SDS011;11179;52.106;21.024;2023-02-28T07:49:23;17.17;;;9.03;;
22030;SDS011;11179;52.106;21.024;2023-02-28T07:51:48;18.43;;;8.07;;
22030;SDS011;11179;52.106;21.024;2023-02-28T07:54:13;22.33;;;8.57;;
22030;SDS011;11179;52.106;21.024;2023-02-28T07:56:39;17.93;;;8.50;;
22030;SDS011;11179;52.106;21.024;2023-02-28T07:59:04;14.57;;;7.00;;
22030;SDS011;11179;52.106;21.024;2023-02-28T08:01:29;16.23;;;7.93;;
22030;SDS011;11179;52.106;21.024;2023-02-28T08:03:54;16.17;;;8.33;;
22030;SDS011;11179;52.106;21.024;2023-02-28T08:06:22;20.47;;;9.20;;
22030;SDS011;11179;52.106;21.024;2023-02-28T08:08:49;15.53;;;8.40;;
22030;SDS011;11179;52.106;21.024;2023-02-28T08:11:15;16.53;;;7.50;;
22030;SDS011;11179;52.106;21.024;2023-02-28T08:13:41;17.90;;;10.33;;
22030;SDS011;11179;52.106;21.024;2023-02-28T08:16:08;22.57;;;10.07;;
22030;SDS011;11179;52.106;21.024;2023-02-28T08:18:34;17.63;;;9.60;;
22030;SDS011;11179;52.106;21.024;2023-02-28T08:21:04;15.90;;;8.40;;
22030;SDS011;11179;52.106;21.024;2023-02-28T08:23:31;18.10;;;9.27;;
22030;SDS011;11179;52.106;21.024;2023-02-28T08:25:58;20.30;;;10.70;;
22030;SDS011;11179;52.106;21.024;2023-02-28T08:28:23;18.00;;;7.90;;
22030;SDS011;11179;52.106;21.024;2023-02-28T08:30:49;17.87;;;8.17;;
22030;SDS011;11179;52.106;21.024;2023-02-28T08:33:15;17.83;;;9.00;;
22030;SDS011;11179;52.106;21.024;2023-02-28T08:35:40;15.00;;;8.10;;
22030;SDS011;11179;52.106;21.024;2023-02-28T08:38:05;19.23;;;8.77;;
22030;SDS011;11179;52.106;21.024;2023-02-28T08:40:30;16.50;;;8.80;;
22030;SDS011;11179;52.106;21.024;2023-02-28T08:42:56;22.20;;;9.13;;
22030;SDS011;11179;52.106;21.024;2023-02-28T08:45:21;25.43;;;7.03;;
22030;SDS011;11179;52.106;21.024;2023-02-28T08:47:46;13.33;;;7.20;;
22030;SDS011;11179;52.106;21.024;2023-02-28T08:50:12;17.13;;;8.70;;
22030;SDS011;11179;52.106;21.024;2023-02-28T08:52:41;17.63;;;7.40;;
22030;SDS011;11179;52.106;21.024;2023-02-28T08:55:07;16.93;;;8.30;;
22030;SDS011;11179;52.106;21.024;2023-02-28T08:57:34;16.50;;;8.87;;
22030;SDS011;11179;52.106;21.024;2023-02-28T08:59:59;17.27;;;8.60;;
22030;SDS011;11179;52.106;21.024;2023-02-28T09:02:29;17.03;;;8.13;;
22030;SDS011;11179;52.106;21.024;2023-02-28T09:04:55;16.50;;;8.10;;
22030;SDS011;11179;52.106;21.024;2023-02-28T09:07:20;15.17;;;7.80;;
22030;SDS011;11179;52.106;21.024;2023-02-28T09:09:45;15.90;;;7.83;;
22030;SDS011;11179;52.106;21.024;2023-02-28T09:12:19;16.57;;;7.97;;
22030;SDS011;11179;52.106;21.024;2023-02-28T09:14:51;14.73;;;8.10;;
22030;SDS011;11179;52.106;21.024;2023-02-28T09:17:17;17.53;;;8.03;;
22030;SDS011;11179;52.106;21.024;2023-02-28T09:19:43;16.10;;;8.87;;
22030;SDS011;11179;52.106;21.024;2023-02-28T09:22:09;15.20;;;8.00;;
22030;SDS011;11179;52.106;21.024;2023-02-28T09:24:36;14.40;;;8.30;;
22030;SDS011;11179;52.106;21.024;2023-02-28T09:27:04;17.73;;;7.67;;
22030;SDS011;11179;52.106;21.024;2023-02-28T09:29:30;19.70;;;8.00;;
22030;SDS011;11179;52.106;21.024;2023-02-28T09:31:56;14.10;;;7.50;;
22030;SDS011;11179;52.106;21.024;2023-02-28T09:34:23;13.93;;;7.70;;
22030;SDS011;11179;52.106;21.024;2023-02-28T09:36:49;15.00;;;8.70;;
22030;SDS011;11179;52.106;21.024;2023-02-28T09:39:19;12.83;;;7.70;;
22030;SDS011;11179;52.106;21.024;2023-02-28T09:41:47;14.40;;;7.67;;
22030;SDS011;11179;52.106;21.024;2023-02-28T09:49:37;14.53;;;7.13;;
22030;SDS011;11179;52.106;21.024;2023-02-28T09:52:14;13.40;;;6.30;;
22030;SDS011;11179;52.106;21.024;2023-02-28T09:54:42;12.10;;;6.13;;
22030;SDS011;11179;52.106;21.024;2023-02-28T10:00:58;17.00;;;7.63;;
22030;SDS011;11179;52.106;21.024;2023-02-28T10:03:11;14.23;;;8.00;;
22030;SDS011;11179;52.106;21.024;2023-02-28T10:05:52;16.80;;;7.80;;
22030;SDS011;11179;52.106;21.024;2023-02-28T10:08:27;17.97;;;8.03;;
22030;SDS011;11179;52.106;21.024;2023-02-28T10:10:58;13.97;;;6.77;;
22030;SDS011;11179;52.106;21.024;2023-02-28T10:14:12;20.30;;;7.90;;
22030;SDS011;11179;52.106;21.024;2023-02-28T10:16:43;18.17;;;8.10;;
22030;SDS011;11179;52.106;21.024;2023-02-28T10:22:10;18.00;;;8.87;;
22030;SDS011;11179;52.106;21.024;2023-02-28T10:24:43;16.90;;;9.00;;
22030;SDS011;11179;52.106;21.024;2023-02-28T10:27:15;34.57;;;8.80;;
22030;SDS011;11179;52.106;21.024;2023-02-28T10:29:44;19.70;;;8.50;;
22030;SDS011;11179;52.106;21.024;2023-02-28T10:32:12;19.33;;;8.97;;
22030;SDS011;11179;52.106;21.024;2023-02-28T10:34:41;14.53;;;7.57;;
22030;SDS011;11179;52.106;21.024;2023-02-28T10:37:06;15.00;;;8.67;;
22030;SDS011;11179;52.106;21.024;2023-02-28T10:42:44;17.80;;;8.67;;
22030;SDS011;11179;52.106;21.024;2023-02-28T10:47:48;15.93;;;8.20;;
22030;SDS011;11179;52.106;21.024;2023-02-28T10:50:27;18.10;;;8.47;;
22030;SDS011;11179;52.106;21.024;2023-02-28T10:55:35;16.80;;;8.93;;
22030;SDS011;11179;52.106;21.024;2023-02-28T10:58:00;20.13;;;9.60;;
22030;SDS011;11179;52.106;21.024;2023-02-28T11:00:26;17.53;;;8.13;;
22030;SDS011;11179;52.106;21.024;2023-02-28T11:02:58;19.33;;;8.30;;
22030;SDS011;11179;52.106;21.024;2023-02-28T11:07:54;15.47;;;8.30;;
22030;SDS011;11179;52.106;21.024;2023-02-28T11:10:24;16.43;;;9.23;;
22030;SDS011;11179;52.106;21.024;2023-02-28T11:12:54;15.70;;;8.37;;
22030;SDS011;11179;52.106;21.024;2023-02-28T11:17:57;17.97;;;8.67;;
22030;SDS011;11179;52.106;21.024;2023-02-28T11:20:26;13.97;;;8.03;;
22030;SDS011;11179;52.106;21.024;2023-02-28T11:22:55;15.47;;;8.40;;
22030;SDS011;11179;52.106;21.024;2023-02-28T11:25:32;19.03;;;9.20;;
22030;SDS011;11179;52.106;21.024;2023-02-28T11:28:01;17.63;;;8.60;;
22030;SDS011;11179;52.106;21.024;2023-02-28T11:30:40;16.03;;;8.87;;
22030;SDS011;11179;52.106;21.024;2023-02-28T11:36:21;17.87;;;8.23;;
22030;SDS011;11179;52.106;21.024;2023-02-28T11:38:53;14.53;;;8.57;;
22030;SDS011;11179;52.106;21.024;2023-02-28T11:41:22;16.20;;;8.97;;
22030;SDS011;11179;52.106;21.024;2023-02-28T11:46:33;15.93;;;8.40;;
22030;SDS011;11179;52.106;21.024;2023-02-28T11:54:51;18.57;;;9.37;;
22030;SDS011;11179;52.106;21.024;2023-02-28T12:06:08;15.90;;;8.97;;
22030;SDS011;11179;52.106;21.024;2023-02-28T12:08:43;15.40;;;8.20;;
22030;SDS011;11179;52.106;21.024;2023-02-28T12:14:14;16.53;;;9.07;;
22030;SDS011;11179;52.106;21.024;2023-02-28T12:19:34;14.10;;;8.50;;
22030;SDS011;11179;52.106;21.024;2023-02-28T12:24:55;19.83;;;8.73;;
22030;SDS011;11179;52.106;21.024;2023-02-28T12:27:39;17.70;;;9.10;;
22030;SDS011;11179;52.106;21.024;2023-02-28T12:30:17;25.43;;;8.90;;
22030;SDS011;11179;52.106;21.024;2023-02-28T12:32:49;18.50;;;8.73;;
22030;SDS011;11179;52.106;21.024;2023-02-28T12:35:25;16.60;;;8.60;;
22030;SDS011;11179;52.106;21.024;2023-02-28T12:38:02;18.70;;;9.00;;
22030;SDS011;11179;52.106;21.024;2023-02-28T12:40:45;20.23;;;8.70;;
22030;SDS011;11179;52.106;21.024;2023-02-28T12:43:16;18.10;;;9.33;;
22030;SDS011;11179;52.106;21.024;2023-02-28T12:45:52;14.03;;;8.00;;
22030;SDS011;11179;52.106;21.024;2023-02-28T12:48:25;17.90;;;9.80;;
22030;SDS011;11179;52.106;21.024;2023-02-28T12:50:56;18.60;;;9.37;;
22030;SDS011;11179;52.106;21.024;2023-02-28T12:53:29;19.30;;;9.10;;
22030;SDS011;11179;52.106;21.024;2023-02-28T12:56:19;19.70;;;9.80;;
22030;SDS011;11179;52.106;21.024;2023-02-28T12:58:56;17.83;;;9.50;;
22030;SDS011;11179;52.106;21.024;2023-02-28T13:04:22;17.70;;;8.83;;
22030;SDS011;11179;52.106;21.024;2023-02-28T13:07:16;20.70;;;9.53;;
22030;SDS011;11179;52.106;21.024;2023-02-28T13:10:02;20.37;;;9.90;;
22030;SDS011;11179;52.106;21.024;2023-02-28T13:12:31;19.93;;;10.43;;
22030;SDS011;11179;52.106;21.024;2023-02-28T13:18:03;17.07;;;9.40;;
22030;SDS011;11179;52.106;21.024;2023-02-28T13:20:30;20.33;;;9.43;;
22030;SDS011;11179;52.106;21.024;2023-02-28T13:22:59;17.10;;;8.90;;
22030;SDS011;11179;52.106;21.024;2023-02-28T13:28:10;18.30;;;9.50;;
22030;SDS011;11179;52.106;21.024;2023-02-28T13:33:20;20.97;;;10.20;;
22030;SDS011;11179;52.106;21.024;2023-02-28T13:44:10;18.70;;;9.73;;
22030;SDS011;11179;52.106;21.024;2023-02-28T13:47:23;19.23;;;10.57;;
22030;SDS011;11179;52.106;21.024;2023-02-28T13:51:48;21.40;;;10.70;;
22030;SDS011;11179;52.106;21.024;2023-02-28T13:54:28;22.53;;;10.37;;
22030;SDS011;11179;52.106;21.024;2023-02-28T13:57:24;17.83;;;10.00;;
22030;SDS011;11179;52.106;21.024;2023-02-28T14:00:21;20.13;;;10.63;;
22030;SDS011;11179;52.106;21.024;2023-02-28T14:05:21;18.67;;;10.60;;
22030;SDS011;11179;52.106;21.024;2023-02-28T14:07:52;20.10;;;10.10;;
22030;SDS011;11179;52.106;21.024;2023-02-28T14:10:22;16.90;;;10.37;;
22030;SDS011;11179;52.106;21.024;2023-02-28T14:15:39;20.67;;;10.43;;
22030;SDS011;11179;52.106;21.024;2023-02-28T14:18:16;24.07;;;11.20;;
22030;SDS011;11179;52.106;21.024;2023-02-28T14:20:46;19.97;;;10.60;;
22030;SDS011;11179;52.106;21.024;2023-02-28T14:31:52;21.10;;;9.73;;
22030;SDS011;11179;52.106;21.024;2023-02-28T14:37:15;33.07;;;11.37;;
22030;SDS011;11179;52.106;21.024;2023-02-28T14:39:44;23.10;;;11.80;;
22030;SDS011;11179;52.106;21.024;2023-02-28T14:44:58;22.00;;;11.13;;
22030;SDS011;11179;52.106;21.024;2023-02-28T14:47:26;20.23;;;11.00;;
22030;SDS011;11179;52.106;21.024;2023-02-28T14:49:55;26.03;;;11.23;;
22030;SDS011;11179;52.106;21.024;2023-02-28T14:52:26;21.93;;;11.77;;
22030;SDS011;11179;52.106;21.024;2023-02-28T14:54:55;24.03;;;11.90;;
22030;SDS011;11179;52.106;21.024;2023-02-28T14:57:30;20.30;;;10.40;;
22030;SDS011;11179;52.106;21.024;2023-02-28T14:59:59;21.40;;;11.13;;
22030;SDS011;11179;52.106;21.024;2023-02-28T15:02:29;19.60;;;10.83;;
22030;SDS011;11179;52.106;21.024;2023-02-28T15:05:00;20.65;;;10.57;;
22030;SDS011;11179;52.106;21.024;2023-02-28T15:07:37;22.23;;;10.20;;
22030;SDS011;11179;52.106;21.024;2023-02-28T15:10:23;19.77;;;10.70;;
22030;SDS011;11179;52.106;21.024;2023-02-28T15:15:21;30.03;;;11.10;;
22030;SDS011;11179;52.106;21.024;2023-02-28T15:17:51;22.13;;;10.50;;
22030;SDS011;11179;52.106;21.024;2023-02-28T15:20:20;20.13;;;10.43;;
22030;SDS011;11179;52.106;21.024;2023-02-28T15:22:47;25.47;;;10.27;;
22030;SDS011;11179;52.106;21.024;2023-02-28T15:25:18;21.87;;;11.03;;
22030;SDS011;11179;52.106;21.024;2023-02-28T15:27:50;21.47;;;10.50;;
22030;SDS011;11179;52.106;21.024;2023-02-28T15:30:25;18.95;;;9.82;;
22030;SDS011;11179;52.106;21.024;2023-02-28T15:35:33;23.03;;;11.60;;
22030;SDS011;11179;52.106;21.024;2023-02-28T15:38:03;23.73;;;12.47;;
22030;SDS011;11179;52.106;21.024;2023-02-28T15:40:38;27.00;;;11.50;;
22030;SDS011;11179;52.106;21.024;2023-02-28T15:43:12;23.93;;;12.20;;
22030;SDS011;11179;52.106;21.024;2023-02-28T15:45:47;22.33;;;10.40;;
22030;SDS011;11179;52.106;21.024;2023-02-28T15:53:51;24.07;;;10.90;;
22030;SDS011;11179;52.106;21.024;2023-02-28T15:56:32;25.33;;;10.83;;
22030;SDS011;11179;52.106;21.024;2023-02-28T15:59:07;25.30;;;12.23;;
22030;SDS011;11179;52.106;21.024;2023-02-28T16:01:40;33.20;;;16.50;;
22030;SDS011;11179;52.106;21.024;2023-02-28T16:04:13;37.73;;;18.30;;
22030;SDS011;11179;52.106;21.024;2023-02-28T16:06:44;55.03;;;25.87;;
22030;SDS011;11179;52.106;21.024;2023-02-28T16:09:14;61.80;;;24.85;;
22030;SDS011;11179;52.106;21.024;2023-02-28T16:11:42;47.27;;;22.10;;
22030;SDS011;11179;52.106;21.024;2023-02-28T16:14:18;55.00;;;24.95;;
22030;SDS011;11179;52.106;21.024;2023-02-28T16:16:48;57.23;;;25.60;;
22030;SDS011;11179;52.106;21.024;2023-02-28T16:19:16;70.30;;;27.43;;
22030;SDS011;11179;52.106;21.024;2023-02-28T16:21:42;55.10;;;24.70;;
22030;SDS011;11179;52.106;21.024;2023-02-28T16:24:07;48.63;;;22.83;;
22030;SDS011;11179;52.106;21.024;2023-02-28T16:26:32;47.53;;;19.03;;
22030;SDS011;11179;52.106;21.024;2023-02-28T16:28:59;42.60;;;19.13;;
22030;SDS011;11179;52.106;21.024;2023-02-28T16:31:26;38.77;;;18.13;;
22030;SDS011;11179;52.106;21.024;2023-02-28T16:33:52;41.60;;;16.30;;
22030;SDS011;11179;52.106;21.024;2023-02-28T16:36:22;36.40;;;15.38;;
22030;SDS011;11179;52.106;21.024;2023-02-28T16:38:51;40.08;;;16.98;;
22030;SDS011;11179;52.106;21.024;2023-02-28T16:41:20;48.70;;;17.57;;
22030;SDS011;11179;52.106;21.024;2023-02-28T16:43:48;40.50;;;18.08;;
22030;SDS011;11179;52.106;21.024;2023-02-28T16:46:16;41.20;;;16.90;;
22030;SDS011;11179;52.106;21.024;2023-02-28T16:48:42;40.50;;;17.80;;
22030;SDS011;11179;52.106;21.024;2023-02-28T16:51:15;49.97;;;23.10;;
22030;SDS011;11179;52.106;21.024;2023-02-28T16:53:41;49.33;;;22.55;;
22030;SDS011;11179;52.106;21.024;2023-02-28T16:56:20;51.40;;;22.10;;
22030;SDS011;11179;52.106;21.024;2023-02-28T16:58:49;57.15;;;28.60;;